Time;durP1;ratioP1;P1;durP2;ratioP2;P2;SDS_P1;SDS_P2;PMS_P1;PMS_P2;Temp;Humidity;BMP_temperature;BMP_pressure;BME280_temperature;BME280_humidity;BME280_pressure;Samples;Min_cycle;Max_cycle;Signal;HPM_P1;HPM_P2
2022/06/06 00:00:43;;;;;;;24.00;21.47;;;;;;;17.10;84.17;99907.22;5102796;28;20467;-62
2022/06/06 00:03:10;;;;;;;23.80;21.43;;;;;;;17.02;84.81;99907.31;5103496;28;20431;-62
2022/06/06 00:05:37;;;;;;;26.27;23.60;;;;;;;16.85;85.15;99904.84;5101469;28;20474;-63
2022/06/06 00:08:04;;;;;;;27.93;24.93;;;;;;;16.93;84.96;99904.72;5102503;28;20479;-64
2022/06/06 00:10:31;;;;;;;27.27;24.53;;;;;;;16.97;84.57;99902.50;5103641;28;20471;-62
2022/06/06 00:12:57;;;;;;;27.93;25.13;;;;;;;16.98;84.37;99903.31;5123464;28;20452;-63
2022/06/06 00:15:24;;;;;;;26.77;24.07;;;;;;;17.03;84.44;99901.75;5121748;28;20470;-62
2022/06/06 00:17:52;;;;;;;28.10;25.23;;;;;;;17.16;83.65;99909.13;5106701;28;20439;-62
2022/06/06 00:20:19;;;;;;;28.30;25.40;;;;;;;17.08;84.04;99906.53;5101722;28;20451;-63
2022/06/06 00:22:46;;;;;;;27.60;24.67;;;;;;;17.12;83.69;99900.56;5102700;28;20542;-62
2022/06/06 00:25:12;;;;;;;27.83;25.13;;;;;;;17.17;83.02;99894.59;5102257;28;20459;-64
2022/06/06 00:27:39;;;;;;;28.63;25.83;;;;;;;17.14;83.49;99900.38;5102882;28;20462;-62
2022/06/06 00:30:06;;;;;;;26.67;23.67;;;;;;;17.02;83.83;99894.66;5102701;28;20443;-62
2022/06/06 00:35:20;;;;;;;29.47;26.77;;;;;;;17.00;83.48;99903.97;5101542;28;20449;-61
2022/06/06 00:37:47;;;;;;;28.27;25.40;;;;;;;16.89;83.35;99903.44;5100911;28;20472;-62
2022/06/06 00:40:15;;;;;;;28.63;25.80;;;;;;;17.00;82.92;99903.97;5101316;28;20476;-62
2022/06/06 00:42:43;;;;;;;26.60;24.10;;;;;;;17.16;82.60;99911.84;5102852;28;20450;-62
2022/06/06 00:45:25;;;;;;;29.00;26.13;;;;;;;17.03;82.88;99909.84;5100482;28;20465;-62
2022/06/06 00:47:55;;;;;;;30.30;27.00;;;;;;;16.89;83.19;99916.09;5101629;28;20445;-62
2022/06/06 00:50:29;;;;;;;28.83;26.00;;;;;;;17.21;82.49;99912.09;5101296;28;20455;-63
2022/06/06 00:52:56;;;;;;;32.40;28.90;;;;;;;17.02;82.80;99913.56;5102254;28;20491;-64
2022/06/06 00:55:26;;;;;;;31.73;28.40;;;;;;;17.03;83.06;99917.94;5101416;28;20458;-63
2022/06/06 00:57:57;;;;;;;35.27;30.50;;;;;;;16.87;83.64;99916.31;5101972;28;20439;-62
2022/06/06 01:00:24;;;;;;;38.83;30.73;;;;;;;17.09;83.32;99916.34;5101755;28;21050;-62
2022/06/06 01:02:53;;;;;;;39.13;33.40;;;;;;;17.04;83.71;99910.66;5102156;28;20809;-61
2022/06/06 01:05:21;;;;;;;35.97;31.40;;;;;;;17.01;83.84;99911.91;5100367;28;20955;-62
2022/06/06 01:07:49;;;;;;;42.60;35.00;;;;;;;17.04;83.50;99908.78;5100850;28;20518;-62
2022/06/06 01:10:17;;;;;;;43.87;32.67;;;;;;;17.20;83.26;99913.13;5101341;28;20470;-62
2022/06/06 01:12:45;;;;;;;43.53;33.93;;;;;;;17.20;82.91;99921.22;5101784;28;20457;-62
2022/06/06 01:15:14;;;;;;;43.23;35.40;;;;;;;17.04;83.69;99916.06;5100587;28;20478;-61
2022/06/06 01:17:46;;;;;;;48.63;38.57;;;;;;;16.96;84.20;99908.06;5102003;28;20541;-62
2022/06/06 01:20:24;;;;;;;47.97;35.97;;;;;;;17.15;83.49;99923.69;5100727;28;20451;-61
2022/06/06 01:23:14;;;;;;;52.30;39.23;;;;;;;17.18;83.44;99917.03;5101739;28;20533;-61
2022/06/06 01:26:12;;;;;;;51.37;40.70;;;;;;;17.09;83.89;99914.47;5092052;28;21010;-60
2022/06/06 01:28:52;;;;;;;58.60;41.73;;;;;;;17.22;84.03;99912.91;5101571;28;20482;-60
2022/06/06 01:31:22;;;;;;;55.57;42.13;;;;;;;17.20;84.20;99914.97;5101174;28;20462;-62
2022/06/06 01:33:52;;;;;;;56.20;41.30;;;;;;;17.36;83.68;99908.47;5101208;28;20447;-62
2022/06/06 01:36:19;;;;;;;58.67;44.03;;;;;;;17.36;83.86;99916.59;5100397;28;20533;-63
2022/06/06 01:38:48;;;;;;;60.13;44.63;;;;;;;17.24;83.99;99913.59;5101666;28;20451;-63
2022/06/06 01:41:23;;;;;;;58.80;44.07;;;;;;;17.20;84.42;99923.91;5101321;28;20967;-62
2022/06/06 01:43:53;;;;;;;58.00;43.10;;;;;;;17.42;83.72;99924.75;5101679;28;20454;-63
2022/06/06 01:46:23;;;;;;;60.70;44.70;;;;;;;17.35;83.72;99912.25;5099864;28;20471;-63
2022/06/06 01:48:51;;;;;;;56.80;43.90;;;;;;;17.37;84.03;99918.28;5102849;28;20482;-62
2022/06/06 01:51:23;;;;;;;54.27;40.20;;;;;;;17.38;83.79;99926.19;5104585;28;20501;-62
2022/06/06 01:53:50;;;;;;;56.20;40.57;;;;;;;17.25;84.08;99920.66;5105520;28;20443;-62
2022/06/06 01:56:19;;;;;;;55.73;41.73;;;;;;;17.38;83.94;99919.97;5104668;28;20477;-63
2022/06/06 01:58:45;;;;;;;54.83;39.83;;;;;;;17.52;83.25;99918.22;5105694;28;20446;-62
2022/06/06 02:01:13;;;;;;;54.97;40.50;;;;;;;17.39;83.68;99910.81;5105292;28;20486;-62
2022/06/06 02:03:40;;;;;;;51.03;37.70;;;;;;;17.31;84.07;99912.63;5104776;28;20541;-62
2022/06/06 02:06:07;;;;;;;48.13;37.10;;;;;;;17.40;83.55;99916.03;5104410;28;20497;-62
2022/06/06 02:08:34;;;;;;;45.83;35.03;;;;;;;17.42;83.41;99911.25;5105419;28;20506;-61
2022/06/06 02:11:00;;;;;;;45.20;35.43;;;;;;;17.43;83.68;99921.06;5104681;28;20474;-64
2022/06/06 02:13:27;;;;;;;43.90;34.13;;;;;;;17.49;83.53;99919.44;5105334;28;20459;-62
2022/06/06 02:15:54;;;;;;;43.17;33.60;;;;;;;17.51;83.58;99928.16;5104420;28;20470;-62
2022/06/06 02:18:22;;;;;;;42.10;33.83;;;;;;;17.72;82.80;99926.50;5105147;28;20427;-63
2022/06/06 02:20:49;;;;;;;45.57;34.90;;;;;;;17.59;83.31;99933.44;5104444;28;20502;-64
2022/06/06 02:23:16;;;;;;;47.40;35.90;;;;;;;17.46;84.18;99952.25;5105071;28;20427;-63
2022/06/06 02:25:43;;;;;;;54.40;40.63;;;;;;;17.46;84.43;99941.44;5104533;28;20500;-62
2022/06/06 02:28:10;;;;;;;57.93;42.57;;;;;;;17.28;84.03;99933.78;5105113;28;20496;-63
2022/06/06 02:30:37;;;;;;;55.63;41.73;;;;;;;17.22;84.42;99956.16;5104633;28;20478;-63
2022/06/06 02:33:05;;;;;;;53.67;41.83;;;;;;;17.29;83.67;99954.34;5103960;28;20443;-62
2022/06/06 02:35:35;;;;;;;58.83;43.33;;;;;;;17.16;82.91;99938.03;5103275;28;20470;-62
2022/06/06 02:38:02;;;;;;;58.27;40.67;;;;;;;17.19;82.46;99957.38;5104839;28;20868;-62
2022/06/06 02:40:30;;;;;;;57.63;37.80;;;;;;;17.08;81.61;99958.72;5104281;28;20463;-62
2022/06/06 02:42:57;;;;;;;50.23;34.73;;;;;;;17.04;80.76;99967.38;5104458;28;20439;-62
2022/06/06 02:45:24;;;;;;;41.70;30.70;;;;;;;16.79;80.55;99973.09;5103099;28;20454;-63
2022/06/06 02:47:52;;;;;;;39.57;28.63;;;;;;;16.71;80.04;99983.97;5104521;28;20470;-61
2022/06/06 02:50:22;;;;;;;32.97;22.00;;;;;;;16.62;78.54;99969.72;5102788;28;21178;-62
2022/06/06 02:52:50;;;;;;;32.83;23.13;;;;;;;16.60;78.19;99985.28;5104399;28;20440;-61
2022/06/06 02:55:17;;;;;;;35.80;23.77;;;;;;;16.70;78.36;99993.09;5103806;28;20803;-62
2022/06/06 02:57:45;;;;;;;31.50;23.37;;;;;;;16.70;78.13;99987.69;5104785;28;20454;-61
2022/06/06 03:00:14;;;;;;;33.53;23.87;;;;;;;16.48;78.26;99997.56;5103285;28;20500;-61
2022/06/06 03:02:41;;;;;;;35.23;22.63;;;;;;;16.59;78.35;99997.09;5103865;28;20447;-61
2022/06/06 03:05:09;;;;;;;32.00;24.30;;;;;;;16.57;78.50;99993.75;5103177;28;20458;-63
2022/06/06 03:07:41;;;;;;;31.80;21.87;;;;;;;16.56;78.35;99997.47;5104029;28;20506;-62
2022/06/06 03:10:22;;;;;;;35.90;22.70;;;;;;;16.52;78.25;100002.38;5103424;28;20536;-61
2022/06/06 03:13:01;;;;;;;39.77;23.87;;;;;;;16.41;78.26;100002.88;5104097;28;20442;-62
2022/06/06 03:21:27;;;;;;;33.13;21.70;;;;;;;16.61;78.10;100022.03;5102869;28;20516;-62
2022/06/06 03:24:09;;;;;;;30.97;21.17;;;;;;;16.29;79.13;100024.06;5103841;28;20454;-63
2022/06/06 03:26:46;;;;;;;31.50;20.80;;;;;;;16.19;79.32;100035.09;5103384;28;20520;-62
2022/06/06 03:29:23;;;;;;;35.07;21.20;;;;;;;16.37;78.77;100034.78;5103469;28;20490;-63
2022/06/06 03:31:55;;;;;;;33.10;21.00;;;;;;;16.29;78.97;100036.72;5102931;28;20561;-62
2022/06/06 03:34:25;;;;;;;40.03;21.93;;;;;;;16.28;78.68;100035.03;5103307;28;20455;-62
2022/06/06 03:36:59;;;;;;;34.07;20.27;;;;;;;16.34;78.40;100037.84;5102967;28;20520;-62
2022/06/06 03:39:31;;;;;;;31.70;20.40;;;;;;;16.23;78.31;100040.13;5103136;28;20459;-63
2022/06/06 03:42:04;;;;;;;28.73;19.13;;;;;;;16.24;78.99;100028.31;5103326;28;20489;-61
2022/06/06 03:44:43;;;;;;;36.37;21.23;;;;;;;16.38;78.69;100028.34;5102299;28;20451;-61
2022/06/06 03:47:16;;;;;;;40.57;25.00;;;;;;;16.21;79.01;100028.69;5102565;28;20475;-61
2022/06/06 03:49:47;;;;;;;35.97;24.00;;;;;;;16.26;79.37;100032.50;5102856;28;20543;-62
2022/06/06 03:52:17;;;;;;;37.40;23.50;;;;;;;16.30;78.87;100032.97;5102006;28;21062;-60
2022/06/06 03:54:50;;;;;;;40.40;23.87;;;;;;;16.37;78.98;100026.69;5103443;28;20451;-62
2022/06/06 03:57:21;;;;;;;38.90;23.70;;;;;;;16.14;79.76;100045.63;5102904;28;21020;-61
2022/06/06 03:59:49;;;;;;;43.97;25.20;;;;;;;16.28;79.47;100043.13;5103141;28;20442;-62
2022/06/06 04:02:19;;;;;;;38.37;24.70;;;;;;;16.43;78.54;100057.47;5102604;28;20501;-61
2022/06/06 04:04:46;;;;;;;37.17;23.90;;;;;;;16.39;78.89;100050.78;5103246;28;20549;-62
2022/06/06 04:07:13;;;;;;;38.70;22.60;;;;;;;16.32;78.89;100053.38;5101457;28;20532;-62
2022/06/06 04:09:40;;;;;;;36.90;23.23;;;;;;;16.56;77.97;100054.13;5102603;28;20486;-62
2022/06/06 04:12:21;;;;;;;36.53;22.47;;;;;;;16.43;78.00;100057.47;5102100;28;20998;-63
2022/06/06 04:14:59;;;;;;;38.27;23.73;;;;;;;16.32;78.53;100050.66;5082168;28;20447;-62
2022/06/06 04:17:37;;;;;;;35.10;23.03;;;;;;;16.28;78.94;100045.81;5097153;28;20482;-62
2022/06/06 04:20:18;;;;;;;34.70;23.03;;;;;;;16.52;77.97;100047.44;5101898;28;20546;-63
2022/06/06 04:22:57;;;;;;;32.20;22.17;;;;;;;16.43;78.27;100043.16;5102657;28;20514;-61
2022/06/06 04:25:37;;;;;;;41.00;24.63;;;;;;;16.21;78.66;100039.47;5100114;28;20459;-61
2022/06/06 04:28:07;;;;;;;35.17;22.17;;;;;;;16.28;78.89;100054.72;5101098;28;20447;-62
2022/06/06 04:30:43;;;;;;;34.50;21.03;;;;;;;16.25;78.61;100043.47;5101851;28;20475;-62
2022/06/06 04:33:18;;;;;;;29.10;21.17;;;;;;;16.29;78.69;100053.72;5101788;28;20500;-61
2022/06/06 04:35:56;;;;;;;37.90;23.63;;;;;;;16.35;78.58;100055.72;5101107;28;20474;-62
2022/06/06 04:38:28;;;;;;;46.07;23.97;;;;;;;16.43;78.60;100056.66;5082389;28;20524;-62
2022/06/06 04:40:59;;;;;;;39.00;23.63;;;;;;;16.65;77.75;100061.13;5095417;28;20498;-62
2022/06/06 04:43:29;;;;;;;37.30;22.20;;;;;;;16.74;77.55;100062.72;5102200;28;20457;-62
2022/06/06 04:46:00;;;;;;;41.10;23.20;;;;;;;16.64;77.70;100056.75;5100357;28;20483;-62
2022/06/06 04:48:27;;;;;;;40.50;25.50;;;;;;;16.41;78.62;100061.41;5102415;28;20443;-63
2022/06/06 04:50:55;;;;;;;41.40;26.13;;;;;;;16.53;78.01;100065.31;5100555;28;20505;-62
2022/06/06 04:53:24;;;;;;;41.77;25.70;;;;;;;16.78;77.55;100065.06;5102146;28;20423;-61
2022/06/06 04:55:51;;;;;;;45.43;29.07;;;;;;;16.38;78.92;100060.72;5092844;28;20491;-61
2022/06/06 04:58:19;;;;;;;43.57;28.17;;;;;;;16.63;78.42;100060.50;5102652;28;20481;-62
2022/06/06 05:00:47;;;;;;;48.50;30.80;;;;;;;16.76;77.76;100062.53;5101096;28;20471;-62
2022/06/06 05:03:15;;;;;;;43.23;31.27;;;;;;;16.81;77.52;100062.81;5102230;28;20419;-61
2022/06/06 05:05:51;;;;;;;48.07;30.00;;;;;;;16.75;77.54;100066.25;5100257;28;20471;-61
2022/06/06 05:08:30;;;;;;;47.70;31.63;;;;;;;16.67;77.61;100064.50;5102608;28;20461;-62
2022/06/06 05:11:08;;;;;;;49.30;31.70;;;;;;;16.93;77.29;100066.75;5100700;28;20536;-60
2022/06/06 05:14:00;;;;;;;51.40;33.80;;;;;;;17.02;76.72;100058.56;5101607;28;20447;-61
2022/06/06 05:16:40;;;;;;;52.63;33.60;;;;;;;17.24;76.35;100068.41;5099988;28;20474;-61
2022/06/06 05:19:22;;;;;;;47.30;32.63;;;;;;;17.45;75.58;100072.19;5081904;28;20531;-61
2022/06/06 05:22:04;;;;;;;54.30;34.13;;;;;;;17.47;74.97;100076.38;5098999;28;20506;-62
2022/06/06 05:24:58;;;;;;;45.83;31.50;;;;;;;17.48;74.74;100072.66;5096480;28;20455;-62
2022/06/06 05:27:40;;;;;;;48.67;32.60;;;;;;;17.45;75.15;100083.00;5084394;28;20486;-63
2022/06/06 05:30:13;;;;;;;51.00;31.67;;;;;;;17.55;74.78;100086.25;5100762;28;20490;-62
2022/06/06 05:33:05;;;;;;;41.47;28.77;;;;;;;17.32;74.54;100075.56;5081743;28;20428;-61
2022/06/06 05:35:54;;;;;;;40.27;28.70;;;;;;;17.06;75.43;100076.06;5076961;28;20461;-61
2022/06/06 05:38:31;;;;;;;42.47;28.67;;;;;;;17.48;74.48;100082.59;5091454;28;20601;-62
2022/06/06 05:41:05;;;;;;;41.77;28.37;;;;;;;17.03;76.10;100088.09;5100611;28;20470;-61
2022/06/06 05:43:41;;;;;;;36.50;26.00;;;;;;;16.99;75.91;100089.47;5100699;28;20435;-62
2022/06/06 05:46:16;;;;;;;40.67;30.10;;;;;;;16.85;76.51;100088.44;5099237;28;20478;-62
2022/06/06 05:48:58;;;;;;;39.23;27.00;;;;;;;16.73;76.95;100106.97;5100560;28;20447;-62
2022/06/06 05:51:36;;;;;;;40.93;26.77;;;;;;;16.76;77.40;100092.22;5098501;28;21086;-62
2022/06/06 05:54:13;;;;;;;43.10;28.50;;;;;;;16.75;77.14;100093.25;5100785;28;20446;-61
2022/06/06 05:56:51;;;;;;;38.67;28.23;;;;;;;16.79;76.81;100094.56;5100841;28;20899;-61
2022/06/06 05:59:41;;;;;;;37.80;29.03;;;;;;;17.03;75.86;100089.94;5100146;28;20899;-61
2022/06/06 06:02:21;;;;;;;38.80;28.90;;;;;;;17.26;74.71;100089.84;5099708;28;20522;-62
2022/06/06 06:05:02;;;;;;;40.53;29.77;;;;;;;17.15;74.86;100093.00;5099952;28;21017;-62
2022/06/06 06:07:37;;;;;;;40.33;29.13;;;;;;;17.22;75.07;100088.53;5099423;28;20508;-61
2022/06/06 06:10:08;;;;;;;35.97;27.30;;;;;;;17.38;74.90;100090.22;5101092;28;20481;-61
2022/06/06 06:13:03;;;;;;;35.80;27.03;;;;;;;17.45;74.25;100089.25;5100919;28;20492;-65
2022/06/06 06:15:34;;;;;;;33.53;24.70;;;;;;;17.54;73.63;100100.78;5100340;28;20470;-62
2022/06/06 06:18:01;;;;;;;39.10;26.23;;;;;;;17.81;73.26;100101.06;5101127;28;20504;-61
2022/06/06 06:20:31;;;;;;;36.53;25.07;;;;;;;17.73;73.26;100109.31;5100146;28;20496;-64
2022/06/06 06:23:01;;;;;;;30.30;22.93;;;;;;;17.66;73.05;100107.38;5100812;28;20471;-65
2022/06/06 06:25:29;;;;;;;32.63;23.53;;;;;;;17.74;73.01;100097.47;5099621;28;20803;-61
2022/06/06 06:27:59;;;;;;;32.93;23.43;;;;;;;17.78;73.75;100105.00;5101309;28;20431;-62
2022/06/06 06:30:30;;;;;;;28.70;21.80;;;;;;;17.84;73.05;100106.94;5100230;27;21121;-61
2022/06/06 06:33:13;;;;;;;31.10;22.87;;;;;;;18.17;71.31;100109.16;5099630;28;20469;-61
2022/06/06 06:35:45;;;;;;;29.07;21.13;;;;;;;18.36;70.96;100110.38;5102405;28;20462;-63
2022/06/06 06:38:27;;;;;;;31.20;20.40;;;;;;;18.30;70.90;100111.19;5084328;28;20616;-62
2022/06/06 06:40:58;;;;;;;25.33;18.93;;;;;;;18.42;70.29;100111.50;5093725;28;20483;-61
2022/06/06 06:43:38;;;;;;;24.30;18.93;;;;;;;18.46;69.89;100111.94;5104568;28;20457;-62
2022/06/06 06:46:11;;;;;;;21.40;18.00;;;;;;;18.52;69.58;100113.84;5102164;28;20494;-61
2022/06/06 06:48:38;;;;;;;23.60;17.80;;;;;;;18.30;70.19;100115.72;5104769;28;20427;-62
2022/06/06 06:51:09;;;;;;;23.50;16.80;;;;;;;18.30;69.72;100116.59;5102254;28;20482;-61
2022/06/06 06:53:48;;;;;;;22.43;17.30;;;;;;;18.60;69.18;100111.84;5104894;28;20431;-62
2022/06/06 06:56:26;;;;;;;19.23;14.87;;;;;;;18.82;68.87;100122.66;5103272;28;20474;-61
2022/06/06 06:58:55;;;;;;;22.07;15.80;;;;;;;18.98;68.29;100116.09;5102650;28;20885;-61
2022/06/06 07:01:30;;;;;;;21.10;14.30;;;;;;;18.79;68.72;100121.13;5103561;28;20536;-62
2022/06/06 07:09:56;;;;;;;16.70;13.00;;;;;;;19.41;66.82;100113.19;5104267;28;20485;-62
2022/06/06 07:12:32;;;;;;;14.83;13.13;;;;;;;19.48;65.75;100124.06;5102556;28;20524;-60
2022/06/06 07:15:10;;;;;;;16.77;11.33;;;;;;;18.97;66.80;100127.94;5103246;28;20859;-59
2022/06/06 07:17:40;;;;;;;13.73;11.17;;;;;;;19.04;66.02;100126.13;5103666;28;20447;-61
2022/06/06 07:20:10;;;;;;;13.70;10.70;;;;;;;19.30;65.69;100124.59;5093222;28;20443;-59
2022/06/06 07:25:22;;;;;;;11.50;10.27;;;;;;;19.11;66.13;100127.03;5101621;28;20471;-59
2022/06/06 07:27:49;;;;;;;11.30;9.37;;;;;;;20.40;60.64;100129.97;5097903;28;20497;-60
2022/06/06 07:30:16;;;;;;;10.00;8.73;;;;;;;20.92;58.71;100131.00;5100662;28;20545;-61
2022/06/06 07:32:50;;;;;;;9.90;8.50;;;;;;;20.80;57.26;100125.38;5102632;28;20447;-60
2022/06/06 07:35:22;;;;;;;8.73;7.83;;;;;;;21.28;55.90;100126.09;5100831;28;20451;-64
2022/06/06 07:38:09;;;;;;;9.30;7.70;;;;;;;20.55;58.44;100125.13;5102147;28;20471;-63
2022/06/06 07:40:47;;;;;;;8.30;7.47;;;;;;;20.64;56.63;100123.94;5101381;28;20814;-60
2022/06/06 07:43:25;;;;;;;7.23;6.50;;;;;;;21.03;55.76;100127.63;5101014;28;20508;-61
2022/06/06 07:45:56;;;;;;;6.83;5.90;;;;;;;20.74;53.84;100126.19;5100074;28;20463;-60
2022/06/06 07:48:32;;;;;;;6.60;6.00;;;;;;;21.75;51.70;100122.19;5102084;28;20427;-60
2022/06/06 07:51:06;;;;;;;6.00;5.40;;;;;;;22.37;49.39;100129.75;5101354;28;20498;-61
2022/06/06 07:53:38;;;;;;;5.83;5.23;;;;;;;22.54;49.17;100130.06;5102464;28;20431;-60
2022/06/06 07:56:12;;;;;;;7.40;6.10;;;;;;;22.00;51.79;100140.47;5098803;28;20474;-61
2022/06/06 07:58:46;;;;;;;8.07;4.47;;;;;;;22.11;51.13;100141.66;5097894;28;20470;-61
2022/06/06 08:01:18;;;;;;;10.27;6.13;;;;;;;20.76;54.65;100140.44;5100319;28;20477;-60
2022/06/06 08:03:50;;;;;;;7.90;5.87;;;;;;;21.45;53.79;100146.34;5100965;28;20424;-60
2022/06/06 08:06:21;;;;;;;6.20;5.40;;;;;;;22.32;50.38;100140.50;5096023;28;21870;-60
2022/06/06 08:09:16;;;;;;;5.37;4.73;;;;;;;23.79;43.54;100139.03;5093867;28;20537;-59
2022/06/06 08:11:58;;;;;;;5.03;4.53;;;;;;;23.43;43.50;100143.47;5100238;28;20538;-59
2022/06/06 08:14:32;;;;;;;5.10;4.60;;;;;;;24.61;41.85;100139.28;5100531;28;20828;-60
2022/06/06 08:17:03;;;;;;;5.50;4.90;;;;;;;25.46;40.59;100139.88;5100241;28;20466;-61
2022/06/06 08:19:45;;;;;;;5.60;4.60;;;;;;;26.45;39.08;100148.88;5100165;28;20452;-60
2022/06/06 08:22:12;;;;;;;5.10;4.60;;;;;;;24.41;41.16;100138.78;5096377;28;20467;-59
2022/06/06 08:24:41;;;;;;;5.03;4.60;;;;;;;22.63;45.31;100146.97;5100391;28;20540;-60
2022/06/06 08:27:12;;;;;;;5.70;4.77;;;;;;;22.29;46.52;100130.03;5099298;28;20938;-59
2022/06/06 08:29:40;;;;;;;6.37;4.70;;;;;;;24.27;41.79;100121.78;5101198;28;20611;-59
2022/06/06 08:32:08;;;;;;;4.40;3.80;;;;;;;25.00;39.65;100134.22;5100504;28;20540;-59
2022/06/06 08:34:34;;;;;;;5.17;4.23;;;;;;;25.28;38.90;100124.44;5099147;28;20485;-61
2022/06/06 08:37:18;;;;;;;4.27;3.97;;;;;;;24.41;41.82;100134.16;5099025;28;20490;-60
2022/06/06 08:39:57;;;;;;;4.30;3.90;;;;;;;25.48;38.14;100128.69;5100483;28;20508;-60
2022/06/06 08:42:35;;;;;;;4.70;4.27;;;;;;;25.83;38.16;100133.22;5099505;28;20467;-60
2022/06/06 08:45:23;;;;;;;5.50;4.03;;;;;;;26.97;35.49;100137.66;5099130;28;20537;-61
2022/06/06 08:47:59;;;;;;;3.47;3.10;;;;;;;26.44;37.16;100134.34;5100553;28;20811;-60
2022/06/06 08:50:46;;;;;;;3.40;2.67;;;;;;;27.95;34.11;100130.69;5098761;28;20486;-61
2022/06/06 08:53:50;;;;;;;3.97;3.57;;;;;;;25.03;39.23;100130.16;5100048;28;20508;-64
2022/06/06 08:56:38;;;;;;;5.70;3.53;;;;;;;25.94;39.03;100135.09;5096712;28;20470;-65
2022/06/06 08:59:56;;;;;;;5.17;2.93;;;;;;;26.56;34.88;100119.72;5099464;28;20442;-62
2022/06/06 09:02:48;;;;;;;4.00;2.77;;;;;;;25.89;37.29;100133.06;5096635;28;20482;-62
2022/06/06 09:05:29;;;;;;;2.93;2.20;;;;;;;24.91;37.75;100135.66;5092887;28;20438;-62
2022/06/06 09:08:27;;;;;;;2.77;1.90;;;;;;;22.69;42.79;100129.69;5100007;28;20478;-62
2022/06/06 09:11:30;;;;;;;3.00;2.40;;;;;;;24.47;38.45;100126.06;5098932;28;20566;-63
2022/06/06 09:14:25;;;;;;;4.00;2.37;;;;;;;24.70;36.90;100125.28;5097794;28;20455;-64
2022/06/06 09:17:34;;;;;;;2.80;2.20;;;;;;;25.64;36.63;100136.16;5087928;28;20492;-64
2022/06/06 09:20:21;;;;;;;2.10;1.60;;;;;;;24.70;37.23;100122.56;5094068;28;20527;-63
2022/06/06 09:23:21;;;;;;;3.77;2.50;;;;;;;24.79;36.97;100130.19;5098477;28;20480;-60
2022/06/06 09:25:59;;;;;;;2.90;1.80;;;;;;;24.13;37.66;100133.94;5085865;28;20474;-61
2022/06/06 09:29:08;;;;;;;3.10;2.20;;;;;;;24.30;39.27;100137.66;5099632;28;20916;-62
2022/06/06 09:32:08;;;;;;;2.20;1.90;;;;;;;23.20;40.42;100138.69;5090613;28;20479;-62
2022/06/06 09:35:07;;;;;;;3.00;1.60;;;;;;;24.57;38.73;100129.91;5098769;28;20451;-63
2022/06/06 09:37:37;;;;;;;3.70;2.33;;;;;;;25.49;36.36;100128.44;5081822;28;20481;-63
2022/06/06 09:40:26;;;;;;;2.87;2.00;;;;;;;26.88;34.74;100122.72;5098631;28;20447;-62
2022/06/06 09:43:13;;;;;;;3.90;2.20;;;;;;;24.93;37.30;100118.97;5098050;28;20451;-63
2022/06/06 09:45:57;;;;;;;2.50;2.03;;;;;;;24.39;36.17;100119.88;5101823;28;20530;-63
2022/06/06 09:48:52;;;;;;;1.97;1.40;;;;;;;23.30;37.39;100123.47;5098539;28;20435;-62
2022/06/06 09:51:52;;;;;;;1.97;1.50;;;;;;;24.54;35.07;100126.81;5085813;28;20482;-62
2022/06/06 10:00:47;;;;;;;2.10;1.53;;;;;;;26.21;31.70;100118.03;5098441;28;20473;-64
2022/06/06 10:03:53;;;;;;;1.80;1.60;;;;;;;26.20;32.73;100130.09;5098754;28;20870;-64
2022/06/06 10:06:53;;;;;;;4.20;1.43;;;;;;;24.85;33.75;100116.63;5071927;28;20488;-64
2022/06/06 10:10:13;;;;;;;2.10;1.90;;;;;;;25.59;32.90;100124.25;5079879;28;20451;-64
2022/06/06 10:13:04;;;;;;;3.90;1.20;;;;;;;24.28;33.59;100107.03;5039906;28;20500;-63
2022/06/06 10:15:49;;;;;;;2.87;1.60;;;;;;;24.88;34.33;100118.88;5038633;28;20508;-64
2022/06/06 10:18:40;;;;;;;1.33;1.13;;;;;;;24.84;32.94;100109.47;5039201;28;20477;-65
2022/06/06 10:21:47;;;;;;;2.80;2.07;;;;;;;24.28;35.48;100120.69;5034930;28;20500;-64
2022/06/06 10:24:39;;;;;;;2.20;1.53;;;;;;;24.11;36.84;100127.88;4980918;28;20459;-64
2022/06/06 10:27:15;;;;;;;2.70;1.33;;;;;;;25.05;34.10;100119.81;5038905;28;20474;-65
2022/06/06 10:30:13;;;;;;;5.53;1.33;;;;;;;26.02;33.69;100125.66;5039275;28;20467;-65
2022/06/06 10:33:07;;;;;;;1.30;1.20;;;;;;;26.81;32.06;100117.41;5034336;28;20469;-64
2022/06/06 10:35:44;;;;;;;1.90;1.20;;;;;;;25.42;33.59;100122.28;5014862;28;21090;-64
2022/06/06 10:38:37;;;;;;;2.20;1.50;;;;;;;23.20;37.21;100123.16;5021211;28;20494;-65
2022/06/06 10:41:13;;;;;;;2.10;1.40;;;;;;;22.23;38.33;100120.00;5025393;28;20473;-64
2022/06/06 10:43:46;;;;;;;2.07;1.40;;;;;;;22.39;39.50;100122.19;5072241;28;20443;-64
2022/06/06 10:46:18;;;;;;;2.73;1.43;;;;;;;22.35;39.84;100121.00;5101460;28;20471;-64
2022/06/06 10:49:12;;;;;;;2.23;1.43;;;;;;;22.45;40.01;100124.06;5101710;28;20463;-64
2022/06/06 10:52:02;;;;;;;2.00;1.60;;;;;;;22.45;39.21;100125.94;5100893;28;20489;-64
2022/06/06 10:55:03;;;;;;;1.93;1.40;;;;;;;22.24;39.86;100129.81;5108601;28;20823;-64
2022/06/06 10:58:00;;;;;;;2.90;1.30;;;;;;;22.48;37.92;100115.44;5099905;28;20479;-65
2022/06/06 11:00:40;;;;;;;1.90;1.50;;;;;;;22.08;39.26;100131.19;5102065;28;20474;-61
2022/06/06 11:03:46;;;;;;;3.80;1.47;;;;;;;22.31;39.40;100126.03;5101830;28;20431;-60
2022/06/06 11:06:24;;;;;;;3.70;1.23;;;;;;;23.22;37.75;100122.94;5095002;28;20501;-62
2022/06/06 11:09:29;;;;;;;1.60;1.20;;;;;;;22.37;38.13;100118.88;5080413;28;20469;-63
2022/06/06 11:12:21;;;;;;;1.30;1.20;;;;;;;21.72;39.85;100119.91;5069970;28;20494;-63
2022/06/06 11:14:51;;;;;;;2.03;1.27;;;;;;;22.73;37.98;100109.97;5080163;28;20525;-62
2022/06/06 11:17:57;;;;;;;2.57;1.50;;;;;;;24.01;35.62;100112.91;5075764;28;20465;-62
2022/06/06 11:20:52;;;;;;;1.77;1.23;;;;;;;25.22;34.27;100119.06;5071565;28;20487;-62
2022/06/06 11:23:21;;;;;;;2.20;1.13;;;;;;;23.73;36.17;100109.91;5085291;28;20455;-61
2022/06/06 11:26:11;;;;;;;3.83;1.70;;;;;;;23.10;37.27;100101.84;5082434;28;20476;-61
2022/06/06 11:28:55;;;;;;;4.00;1.70;;;;;;;22.46;39.02;100109.34;5070030;28;20549;-62
2022/06/06 11:31:43;;;;;;;2.57;0.93;;;;;;;22.35;39.11;100118.25;5079290;28;20491;-64
2022/06/06 11:34:46;;;;;;;2.00;1.30;;;;;;;23.53;37.86;100100.09;5080161;28;20482;-71
2022/06/06 11:37:58;;;;;;;1.67;1.10;;;;;;;23.09;38.42;100107.56;5060347;28;20542;-71
2022/06/06 11:40:42;;;;;;;1.63;1.00;;;;;;;23.67;37.36;100115.22;5072183;28;20464;-73
2022/06/06 11:43:27;;;;;;;3.33;1.20;;;;;;;23.44;36.25;100104.22;5068696;28;20449;-74
2022/06/06 11:46:14;;;;;;;1.30;1.13;;;;;;;22.49;37.93;100113.53;5078729;28;20480;-64
2022/06/06 11:49:17;;;;;;;1.30;0.90;;;;;;;22.48;38.25;100107.28;5080206;28;20448;-66
2022/06/06 11:52:07;;;;;;;2.00;1.03;;;;;;;22.87;38.89;100110.66;5078421;28;20472;-64
2022/06/06 11:54:57;;;;;;;2.13;1.37;;;;;;;22.80;39.35;100109.09;5083918;28;20469;-63
2022/06/06 11:57:32;;;;;;;1.57;1.03;;;;;;;22.75;38.56;100102.41;5086187;28;20486;-64
2022/06/06 12:00:19;;;;;;;1.20;0.90;;;;;;;22.75;37.80;100112.47;5081559;28;20448;-64
2022/06/06 12:03:19;;;;;;;1.47;1.23;;;;;;;22.64;38.28;100110.50;5073972;28;20474;-64
2022/06/06 12:06:12;;;;;;;2.93;1.30;;;;;;;22.75;37.73;100118.75;5075077;28;20475;-64
2022/06/06 12:08:58;;;;;;;1.87;1.03;;;;;;;23.63;37.50;100105.03;5092945;28;20456;-64
2022/06/06 12:12:03;;;;;;;1.93;0.87;;;;;;;23.57;39.10;100116.84;5100030;28;20471;-64
2022/06/06 12:15:06;;;;;;;1.50;1.10;;;;;;;23.09;37.62;100115.75;5066305;28;20497;-64
2022/06/06 12:17:43;;;;;;;6.03;1.97;;;;;;;22.98;36.99;100109.09;5106900;28;20457;-65
2022/06/06 12:20:55;;;;;;;4.27;1.40;;;;;;;22.63;37.88;100127.88;5120370;28;20537;-64
2022/06/06 12:23:32;;;;;;;4.20;1.50;;;;;;;22.25;38.78;100113.25;5079523;28;20854;-64
2022/06/06 12:26:22;;;;;;;4.87;1.37;;;;;;;22.58;37.25;100109.47;5097302;28;20474;-64
2022/06/06 12:29:15;;;;;;;7.43;1.77;;;;;;;21.60;38.97;100119.72;5087875;28;20443;-64